EDMA/AGB METAR and TAF weather

Enter ICAO airport designator
Station Type Date Time Source
EDMA METAR 2019/12/08 13:50 UTC NOAA

EDMA 081350Z 23015KT CAVOK 09/04 Q1010


Station Type Date Time Source
EDMA Decoded METAR 2019/12/08 13:50 UTC NOAA

Augsburg, Germany (EDMA) 48-26N 010-56E 463M
Dec 08, 2019 - 08:50 AM EST / 2019.12.08 1350 UTC
Wind: from the SW (230 degrees) at 17 MPH (15 KT):0
Visibility: greater than 7 mile(s):0
Temperature: 48 F (9 C)
Dew Point: 39 F (4 C)
Relative Humidity: 70%
Pressure (altimeter): 29.83 in. Hg (1010 hPa)
ob: EDMA 081350Z 23015KT CAVOK 09/04 Q1010
cycle: 14

Station Type Date Time Source
EDMA TAF 2010/02/22 13:50 UTC NOAA

METAR EDMA 221350Z 23006KT CAVOK 10/02 Q0996

Example: see airport list